This is the latest recevied weather packets stored in our database for station/object OE3EMC-13. If no packets are shown the sender has not sent any weather packets the latest 10 day(s).
| Time | Temp. | Humidity | Pressure | Rain* | Wind** | Luminosity | Snow |
|---|---|---|---|---|---|---|---|
| 1777797795 | 21.67° C | 43% | 1100 hPa | 0 mm | - | - | - |
| 1777797194 | 20° C | 45% | 1100 hPa | 0 mm | - | - | - |
| 1777796595 | 20° C | 45% | 1100 hPa | 0 mm | - | - | - |
| 1777795993 | 17.78° C | 51% | 1100 hPa | 0 mm | - | - | - |
| 1777795393 | 17.78° C | 51% | 1100 hPa | 0 mm | - | - | - |
| 1777794794 | 16.67° C | 54% | 1100 hPa | 0 mm | - | - | - |
| 1777794194 | 16.67° C | 54% | 1100 hPa | 0 mm | - | - | - |
| 1777793593 | 16.11° C | 54% | 1100 hPa | 0 mm | - | - | - |
| 1777792993 | 16.11° C | 54% | 1100 hPa | 0 mm | - | - | - |
| 1777792394 | 15° C | 56% | 1100 hPa | 0 mm | - | - | - |
| 1777791793 | 15° C | 56% | 1100 hPa | 0 mm | - | - | - |
| 1777791194 | 14.44° C | 56% | 1100 hPa | 0 mm | - | - | - |
| 1777790593 | 14.44° C | 56% | 1100 hPa | 0 mm | - | - | - |
| 1777789994 | 13.33° C | 55% | 1100 hPa | 0 mm | - | - | - |
| 1777789392 | 13.33° C | 55% | 1100 hPa | 0 mm | - | - | - |
| 1777788793 | 12.22° C | 56% | 1100 hPa | 0 mm | - | - | - |
| 1777788191 | 12.22° C | 56% | 1100 hPa | 0 mm | - | - | - |
| 1777787593 | 12.22° C | 56% | 1100 hPa | 0 mm | - | - | - |
| 1777786992 | 12.22° C | 56% | 1100 hPa | 0 mm | - | - | - |
| 1777786393 | 11.67° C | 57% | 1100 hPa | 0 mm | - | - | - |
| 1777785791 | 11.67° C | 57% | 1100 hPa | 0 mm | - | - | - |
| 1777785192 | 10.56° C | 57% | 1100 hPa | 0 mm | - | - | - |
| 1777784591 | 10.56° C | 57% | 1100 hPa | 0 mm | - | - | - |
| 1777783991 | 8.89° C | 62% | 1100 hPa | 0 mm | - | - | - |
| 1777783391 | 8.89° C | 62% | 1100 hPa | 0 mm | - | - | - |
* Rain latest hour (hover to see other rain measurements)
** Current wind speed in m/s (hover to see current wind gust speed)